Latest Weather Observations for Ballera

IDQ60801

Issued at 9:32 am EST Wednesday 29 March 2017 (issued every 30 minutes, with the page automatically refreshed every 10 minutes)

About weather observations | Map of weather stations | Latest weather observations for QLD | Other Formats
Station Details ID: 045009 Name: BALLERA GAS FIELD Lat: -27.40 Lon: 141.81 Height: 114.5 m
Data from the previous 72 hours. | See also: Recent months at Ballera
Date/Time
EST
Temp
°C
App
Temp
°C
Dew
Point
°C
Rel
Hum
%
Delta-T
°C
Wind Press
QNH
hPa
Press
MSL
hPa
Rain since
9am
mm
Dir  Spd
km/h
Gust
km/h
Spd
kts
Gust
kts
29/09:30am 33.0 29.4 8.5 22 13.8 E 17 20 9 11 1009.6 1008.9 0.0
29/09:00am 31.7 27.3 7.4 22 13.4 E 20 26 11 14 1009.5 1008.8 0.0
29/08:30am 30.2 25.7 6.8 23 12.6 ESE 20 26 11 14 1009.3 1008.6 0.0
29/08:00am 28.8 24.0 5.6 23 12.2 ESE 20 24 11 13 1009.2 1008.5 0.0
29/07:30am 27.9 23.3 5.5 24 11.7 SE 19 22 10 12 1009.0 1008.3 0.0
29/07:00am 26.9 23.1 5.8 26 11.0 SE 15 19 8 10 1008.9 1008.2 0.0
29/06:30am 26.5 22.7 6.0 27 10.7 SE 15 19 8 10 1008.8 1008.1 0.0
29/06:00am 26.6 23.2 6.1 27 10.7 SE 13 17 7 9 1008.6 1007.9 0.0
29/05:30am 26.9 23.5 5.8 26 11.0 SE 13 17 7 9 1008.5 1007.8 0.0
29/05:00am 27.4 23.6 5.6 25 11.4 SE 15 20 8 11 1008.2 1007.5 0.0
29/04:30am 27.8 23.1 6.0 25 11.4 SE 20 26 11 14 1007.9 1007.2 0.0
29/04:00am 28.2 23.0 5.7 24 11.8 SSE 22 28 12 15 1008.0 1007.3 0.0
29/03:30am 28.7 23.6 6.1 24 11.9 SSE 22 26 12 14 1008.1 1007.4 0.0
29/03:00am 29.2 24.5 6.0 23 12.3 SSE 20 24 11 13 1008.4 1007.7 0.0
29/02:30am 29.5 25.4 6.2 23 12.4 SSE 17 20 9 11 1008.6 1007.9 0.0
29/02:00am 29.8 25.4 6.5 23 12.5 SSE 19 22 10 12 1008.8 1008.1 0.0
29/01:30am 30.1 25.2 6.7 23 12.6 SSE 22 28 12 15 1008.7 1008.0 0.0
29/01:00am 30.4 25.5 7.0 23 12.7 SE 22 28 12 15 1008.9 1008.2 0.0
29/12:30am 30.9 25.2 6.7 22 13.1 SSE 26 32 14 17 1009.0 1008.3 0.0
29/12:00am 31.4 25.8 7.1 22 13.3 SSE 26 32 14 17 1009.3 1008.6 0.0
 
Date/Time
EST
Temp
°C
App
Temp
°C
Dew
Point
°C
Rel
Hum
%
Delta-T
°C
Wind Press
QNH
hPa
Press
MSL
hPa
Rain since
9am
mm
Dir  Spd
km/h
Gust
km/h
Spd
kts
Gust
kts
28/11:30pm 31.9 26.0 7.5 22 13.4 SSE 28 33 15 18 1009.3 1008.6 0.0
28/11:00pm 32.2 27.5 7.8 22 13.5 SSE 22 28 12 15 1009.7 1009.0 0.0
28/10:30pm 32.8 27.3 7.6 21 14.0 SSE 26 32 14 17 1009.7 1009.0 0.0
28/10:00pm 33.3 27.0 7.3 20 14.4 SSE 30 39 16 21 1009.7 1009.0 0.0
28/09:30pm 33.9 27.5 7.0 19 14.8 SSE 30 37 16 20 1009.6 1008.9 0.0
28/09:00pm 34.3 27.6 7.4 19 15.0 SSE 32 37 17 20 1009.2 1008.5 0.0
28/08:30pm 34.9 28.0 7.1 18 15.4 SSE 33 39 18 21 1008.9 1008.2 0.0
28/08:00pm 35.7 28.9 6.9 17 16.0 SSE 32 39 17 21 1008.5 1007.8 0.0
28/07:30pm 36.6 29.8 6.7 16 16.6 S 32 39 17 21 1008.0 1007.3 0.0
28/07:00pm 37.3 29.8 6.3 15 17.2 S 35 43 19 23 1007.6 1006.9 0.0
28/06:30pm 38.4 30.7 7.2 15 17.6 S 37 46 20 25 1007.2 1006.5 0.0
28/06:00pm 39.5 32.2 7.1 14 18.4 S 35 43 19 23 1006.8 1006.1 0.0
28/05:30pm 40.8 34.1 8.1 14 18.9 S 33 44 18 24 1006.3 1005.6 0.0
28/05:00pm 41.1 37.5 8.3 14 19.1 SSE 17 28 9 15 1006.1 1005.4 0.0
28/04:30pm 41.8 38.3 8.8 14 19.4 SW 17 26 9 14 1006.2 1005.5 0.0
28/04:00pm 41.4 38.6 8.5 14 19.3 SSW 13 20 7 11 1006.4 1005.7 0.0
28/03:30pm 41.3 38.1 8.5 14 19.1 S 15 22 8 12 1006.7 1006.0 0.0
28/03:00pm 40.9 37.6 8.1 14 19.0 SSW 15 22 8 12 1006.9 1006.2 0.0
28/02:30pm 40.8 38.1 9.1 15 18.6 SSE 13 20 7 11 1007.1 1006.4 0.0
28/02:00pm 41.5 39.5 8.6 14 19.3 WNW 9 19 5 10 1007.4 1006.7 0.0
28/01:30pm 40.7 39.2 9.0 15 18.6 N 7 15 4 8 1007.8 1007.1 0.0
28/01:00pm 40.1 38.3 9.5 16 18.1 NNW 9 22 5 12 1008.3 1007.6 0.0
28/12:30pm 40.1 39.1 10.4 17 17.7 NNE 6 11 3 6 1008.8 1008.1 0.0
28/12:00pm 39.4 37.7 9.8 17 17.5 NW 9 19 5 10 1009.3 1008.6 0.0
28/11:30am 38.7 36.5 10.9 19 16.6 N 13 20 7 11 1009.6 1008.9 0.0
28/11:00am 37.5 35.7 10.7 20 15.9 N 11 17 6 9 1010.2 1009.5 0.0
28/10:30am 37.4 35.4 11.4 21 15.6 N 13 20 7 11 1010.4 1009.7 0.0
28/10:00am 36.5 34.2 10.6 21 15.3 E 13 19 7 10 1010.4 1009.7 0.0
28/09:30am 34.7 31.3 10.5 23 14.1 ESE 19 26 10 14 1010.4 1009.7 0.0
28/09:00am 33.1 29.3 11.0 26 12.9 ESE 22 28 12 15 1010.4 1009.7 0.0
28/08:30am 31.8 27.6 11.0 28 12.1 ESE 24 30 13 16 1010.2 1009.5 0.0
28/08:00am 30.6 26.8 11.1 30 11.3 SE 22 26 12 14 1010.1 1009.4 0.0
28/07:30am 29.6 26.2 10.7 31 10.8 SE 19 24 10 13 1010.0 1009.3 0.0
28/07:00am 28.6 25.6 10.8 33 10.2 SSE 17 20 9 11 1009.7 1009.0 0.0
28/06:30am 28.7 25.7 10.8 33 10.2 SSE 17 20 9 11 1009.6 1008.9 0.0
28/06:00am 29.1 25.7 10.7 32 10.5 SSE 19 22 10 12 1009.4 1008.7 0.0
28/05:30am 29.5 26.5 10.6 31 10.8 SSE 17 20 9 11 1009.1 1008.4 0.0
28/05:00am 29.9 27.0 10.9 31 11.0 S 17 22 9 12 1008.8 1008.1 0.0
28/04:30am 30.3 27.3 10.8 30 11.2 S 17 20 9 11 1008.6 1007.9 0.0
28/04:00am 30.5 27.6 11.0 30 11.3 S 17 22 9 12 1008.4 1007.7 0.0
28/03:30am 30.7 27.8 11.1 30 11.4 S 17 20 9 11 1008.5 1007.8 0.0
28/03:00am 30.9 27.9 10.8 29 11.6 SSE 17 20 9 11 1008.5 1007.8 0.0
28/02:30am 31.7 28.2 11.0 28 12.0 SSE 20 24 11 13 1008.7 1008.0 0.0
28/02:00am 32.0 28.2 11.2 28 12.2 SSE 22 26 12 14 1008.7 1008.0 0.0
28/01:30am 32.7 28.4 10.7 26 12.8 SSE 24 28 13 15 1008.8 1008.1 0.0
28/01:00am 34.0 29.1 11.2 25 13.5 SSE 28 35 15 19 1009.0 1008.3 0.0
28/12:30am 34.2 29.1 10.7 24 13.7 SSE 28 35 15 19 1009.2 1008.5 0.0
28/12:00am 34.9 29.4 10.7 23 14.2 SSE 30 35 16 19 1009.2 1008.5 0.0
 
Date/Time
EST
Temp
°C
App
Temp
°C
Dew
Point
°C
Rel
Hum
%
Delta-T
°C
Wind Press
QNH
hPa
Press
MSL
hPa
Rain since
9am
mm
Dir  Spd
km/h
Gust
km/h
Spd
kts
Gust
kts
27/11:30pm 35.4 30.1 9.7 21 14.9 S 28 35 15 19 1009.4 1008.7 0.0
27/11:00pm 36.2 29.9 8.9 19 15.7 S 32 44 17 24 1009.5 1008.8 0.0
27/10:30pm 36.3 31.9 9.0 19 15.7 SSW 22 33 12 18 1009.3 1008.6 0.0
27/10:00pm 36.5 35.6 9.2 19 15.8 S 4 6 2 3 1008.9 1008.2 0.0
27/09:30pm 36.9 35.5 9.5 19 15.9 S 7 7 4 4 1008.8 1008.1 0.0
27/09:00pm 36.4 36.6 10.6 21 15.2 CALM 0 0 0 0 1008.6 1007.9 0.0
27/08:30pm 37.4 35.8 8.2 17 16.7 S 6 7 3 4 1008.3 1007.6 0.0
27/08:00pm 37.8 35.9 7.7 16 17.1 S 7 9 4 5 1007.9 1007.2 0.0
27/07:30pm 38.2 36.4 8.0 16 17.3 S 7 9 4 5 1007.8 1007.1 0.0
27/07:00pm 38.4 36.0 7.2 15 17.7 S 9 13 5 7 1007.5 1006.8 0.0
27/06:30pm 40.2 37.6 7.6 14 18.7 SSW 11 19 6 10 1007.3 1006.6 0.0
27/06:00pm 40.9 37.8 7.1 13 19.3 SSW 13 19 7 10 1007.3 1006.6 0.0
27/05:30pm 41.4 38.7 7.4 13 19.5 SSW 11 20 6 11 1007.1 1006.4 0.0
27/05:00pm 41.4 37.0 7.4 13 19.6 SW 20 28 11 15 1007.1 1006.4 0.0
27/04:30pm 41.7 39.1 7.7 13 19.6 SW 11 15 6 8 1007.0 1006.3 0.0
27/04:00pm 41.6 39.7 7.6 13 19.7 WSW 7 26 4 14 1007.2 1006.5 0.0
27/03:30pm 41.3 39.4 7.4 13 19.5 SSW 7 15 4 8 1007.4 1006.7 0.0
27/03:00pm 42.0 40.2 7.9 13 19.8 SW 7 17 4 9 1007.7 1007.0 0.0
27/02:30pm 41.3 37.4 8.5 14 19.1 S 19 28 10 15 1008.1 1007.4 0.0
27/02:00pm 40.8 37.9 8.1 14 19.0 W 13 20 7 11 1008.4 1007.7 0.0
27/01:30pm 41.0 38.5 8.2 14 19.0 S 11 20 6 11 1008.8 1008.1 0.0
27/01:00pm 40.8 38.9 9.1 15 18.6 SSW 9 17 5 9 1009.2 1008.5 0.0
27/12:30pm 40.7 37.5 10.0 16 18.3 WNW 17 26 9 14 1009.7 1009.0 0.0
27/12:00pm 39.7 37.1 9.2 16 17.9 W 13 26 7 14 1010.4 1009.7 0.0
27/11:30am 39.6 36.4 10.0 17 17.5 WNW 17 26 9 14 1011.0 1010.3 0.0
27/11:00am 39.0 35.6 10.4 18 17.0 NW 19 28 10 15 1011.2 1010.5 0.0
27/10:30am 38.4 34.8 10.7 19 16.5 NNW 20 32 11 17 1011.8 1011.0 0.0
27/10:00am 37.5 33.9 10.7 20 15.9 N 20 28 11 15 1011.9 1011.1 0.0
27/09:30am 36.1 32.3 11.0 22 14.9 N 22 28 12 15 1012.0 1011.3 0.0
27/09:00am 35.4 32.9 11.1 23 14.4 N 15 20 8 11 1011.8 1011.0 0.0
27/08:30am 34.8 33.3 11.9 25 13.7 NE 11 13 6 7 1011.8 1011.0 0.0
27/08:00am 32.4 30.6 11.0 27 12.5 ENE 11 13 6 7 1011.4 1010.7 0.0
27/07:30am 30.2 28.0 10.7 30 11.2 ENE 13 15 7 8 1011.0 1010.3 0.0
27/07:00am 28.8 27.3 10.5 32 10.4 NE 9 13 5 7 1010.7 1010.0 0.0
27/06:30am 28.6 27.0 10.3 32 10.4 NE 9 11 5 6 1010.4 1009.7 0.0
27/06:00am 29.8 28.4 10.9 31 10.9 NE 9 13 5 7 1009.9 1009.2 0.0
27/05:30am 29.5 27.8 11.1 32 10.6 NNW 11 11 6 6 1009.7 1009.0 0.0
27/05:00am 29.5 27.5 10.1 30 11.0 NNW 11 13 6 7 1009.4 1008.7 0.0
27/04:30am 29.7 27.7 10.3 30 11.1 NNW 11 13 6 7 1009.1 1008.4 0.0
27/04:00am 30.3 28.9 10.8 30 11.3 NNW 9 11 5 6 1009.0 1008.3 0.0
27/03:30am 30.9 29.5 10.8 29 11.6 NNW 9 11 5 6 1009.0 1008.3 0.0
27/03:00am 31.5 29.7 10.8 28 12.0 NNW 11 13 6 7 1009.0 1008.3 0.0
27/02:30am 31.9 30.4 10.6 27 12.3 NE 9 11 5 6 1009.3 1008.6 0.0
27/02:00am 32.6 30.1 11.2 27 12.5 NE 15 17 8 9 1009.4 1008.7 0.0
27/01:30am 32.7 30.5 10.7 26 12.8 NE 13 15 7 8 1009.6 1008.9 0.0
27/01:00am 33.1 30.4 10.4 25 13.2 NE 15 17 8 9 1009.7 1009.0 0.0
27/12:30am 32.5 30.4 11.1 27 12.5 NE 13 13 7 7 1009.9 1009.2 0.0
27/12:00am 32.9 31.2 9.7 24 13.3 NE 9 13 5 7 1010.0 1009.3 0.0
 
Date/Time
EST
Temp
°C
App
Temp
°C
Dew
Point
°C
Rel
Hum
%
Delta-T
°C
Wind Press
QNH
hPa
Press
MSL
hPa
Rain since
9am
mm
Dir  Spd
km/h
Gust
km/h
Spd
kts
Gust
kts
26/11:30pm 33.3 31.5 9.4 23 13.7 NE 9 11 5 6 1010.1 1009.4 0.0
26/11:00pm 33.6 31.5 9.6 23 13.8 NE 11 11 6 6 1010.1 1009.4 0.0
26/10:30pm 34.3 31.9 10.2 23 14.0 NE 13 15 7 8 1010.1 1009.4 0.0
26/10:00pm 34.5 33.0 10.4 23 14.1 NE 9 11 5 6 1010.2 1009.5 0.0
26/09:30pm 35.2 33.6 10.3 22 14.5 NE 9 11 5 6 1010.2 1009.5 0.0
26/09:00pm 35.3 33.4 8.9 20 15.1 NE 9 11 5 6 1010.0 1009.3 0.0
26/08:30pm 35.7 33.5 9.3 20 15.2 NE 11 13 6 7 1009.7 1009.0 0.0
26/08:00pm 36.8 34.0 8.6 18 16.2 NE 13 15 7 8 1009.2 1008.5 0.0
26/07:30pm 37.4 35.1 9.1 18 16.4 ENE 11 13 6 7 1008.7 1008.0 0.0
26/07:00pm 37.9 35.5 8.6 17 16.9 ENE 11 13 6 7 1008.4 1007.7 0.0
26/06:30pm 39.2 36.2 7.8 15 18.0 ENE 13 17 7 9 1008.1 1007.4 0.0
26/06:00pm 39.9 36.1 7.4 14 18.6 NE 17 20 9 11 1007.9 1007.2 0.0
26/05:30pm 40.5 36.5 6.7 13 19.2 ENE 17 28 9 15 1007.7 1007.0 0.0
26/05:00pm 40.5 36.1 6.7 13 19.2 ENE 19 24 10 13 1007.6 1006.9 0.0
26/04:30pm 40.8 38.7 8.1 14 18.9 SE 9 19 5 10 1007.6 1006.9 0.0
26/04:00pm 40.2 37.4 8.6 15 18.4 NNE 13 20 7 11 1007.7 1007.0 0.0
26/03:30pm 41.2 39.8 9.4 15 18.8 WNW 7 15 4 8 1007.9 1007.2 0.0
26/03:00pm 41.4 37.8 8.5 14 19.2 E 17 28 9 15 1008.2 1007.5 0.0
26/02:30pm 40.6 37.3 7.9 14 18.9 NNE 15 20 8 11 1008.7 1008.0 0.0
26/02:00pm 40.4 37.7 8.8 15 18.5 ENE 13 19 7 10 1009.1 1008.4 0.0
26/01:30pm 40.6 37.8 9.9 16 18.2 W 15 20 8 11 1009.5 1008.8 0.0
26/01:00pm 40.0 37.4 9.4 16 18.0 N 13 22 7 12 1010.2 1009.5 0.0
26/12:30pm 40.1 37.4 10.4 17 17.7 NE 15 20 8 11 1010.7 1010.0 0.0
26/12:00pm 38.9 36.6 11.9 20 16.4 NW 15 24 8 13 1011.1 1010.4 0.0
26/11:30am 39.3 37.0 12.9 20 16.3 NNW 17 30 9 16 1011.4 1010.7 0.0
26/11:00am 38.8 36.0 13.2 21 15.8 NW 20 30 11 16 1011.9 1011.1 0.0
26/10:30am 37.4 33.9 13.4 24 14.8 NNW 24 33 13 18 1012.2 1011.5 0.0
26/10:00am 36.3 32.7 14.3 27 13.7 NNW 26 35 14 19 1012.5 1011.8 0.0

Other Formats:

Comma delimited format used in spreadsheet applications
http://www.bom.gov.au/fwo/IDQ60801/IDQ60801.95487.axf

JavaScript Object Notation format (JSON) in row-major order
http://www.bom.gov.au/fwo/IDQ60801/IDQ60801.95487.json